sensor_id;sensor_type;location;lat;lon;timestamp;P1;durP1;ratioP1;P2;durP2;ratioP2
63499;SDS011;49654;51.142;14.924;2022-10-31T00:01:47;23.42;;;10.90;;
63499;SDS011;49654;51.142;14.924;2022-10-31T00:04:16;18.05;;;11.00;;
63499;SDS011;49654;51.142;14.924;2022-10-31T00:06:43;23.33;;;11.82;;
63499;SDS011;49654;51.142;14.924;2022-10-31T00:09:10;17.83;;;10.90;;
63499;SDS011;49654;51.142;14.924;2022-10-31T00:11:37;17.10;;;11.45;;
63499;SDS011;49654;51.142;14.924;2022-10-31T00:14:04;22.20;;;11.45;;
63499;SDS011;49654;51.142;14.924;2022-10-31T00:16:31;24.20;;;12.20;;
63499;SDS011;49654;51.142;14.924;2022-10-31T00:18:59;18.67;;;11.52;;
63499;SDS011;49654;51.142;14.924;2022-10-31T00:21:30;30.65;;;11.95;;
63499;SDS011;49654;51.142;14.924;2022-10-31T00:23:58;18.45;;;11.27;;
63499;SDS011;49654;51.142;14.924;2022-10-31T00:26:26;20.95;;;11.45;;
63499;SDS011;49654;51.142;14.924;2022-10-31T00:28:53;22.88;;;11.80;;
63499;SDS011;49654;51.142;14.924;2022-10-31T00:31:21;21.13;;;12.07;;
63499;SDS011;49654;51.142;14.924;2022-10-31T00:33:48;24.05;;;12.20;;
63499;SDS011;49654;51.142;14.924;2022-10-31T00:36:15;21.42;;;12.23;;
63499;SDS011;49654;51.142;14.924;2022-10-31T00:38:46;17.95;;;11.55;;
63499;SDS011;49654;51.142;14.924;2022-10-31T00:41:14;17.65;;;12.00;;
63499;SDS011;49654;51.142;14.924;2022-10-31T00:43:43;18.77;;;11.23;;
63499;SDS011;49654;51.142;14.924;2022-10-31T00:46:10;18.70;;;11.55;;
63499;SDS011;49654;51.142;14.924;2022-10-31T00:48:37;20.65;;;11.90;;
63499;SDS011;49654;51.142;14.924;2022-10-31T00:51:04;17.90;;;10.68;;
63499;SDS011;49654;51.142;14.924;2022-10-31T00:53:31;21.42;;;11.23;;
63499;SDS011;49654;51.142;14.924;2022-10-31T00:56:00;21.25;;;10.68;;
63499;SDS011;49654;51.142;14.924;2022-10-31T00:58:27;17.95;;;10.18;;
63499;SDS011;49654;51.142;14.924;2022-10-31T01:00:54;15.60;;;9.18;;
63499;SDS011;49654;51.142;14.924;2022-10-31T01:03:21;14.77;;;9.07;;
63499;SDS011;49654;51.142;14.924;2022-10-31T01:05:56;14.85;;;8.57;;
63499;SDS011;49654;51.142;14.924;2022-10-31T01:08:24;16.90;;;9.00;;
63499;SDS011;49654;51.142;14.924;2022-10-31T01:11:00;16.23;;;7.95;;
63499;SDS011;49654;51.142;14.924;2022-10-31T01:13:28;13.70;;;7.57;;
63499;SDS011;49654;51.142;14.924;2022-10-31T01:15:56;18.50;;;8.70;;
63499;SDS011;49654;51.142;14.924;2022-10-31T01:18:23;11.32;;;7.18;;
63499;SDS011;49654;51.142;14.924;2022-10-31T01:20:57;16.55;;;7.75;;
63499;SDS011;49654;51.142;14.924;2022-10-31T01:23:26;13.10;;;7.88;;
63499;SDS011;49654;51.142;14.924;2022-10-31T01:26:05;13.70;;;7.90;;
63499;SDS011;49654;51.142;14.924;2022-10-31T01:28:34;13.45;;;7.10;;
63499;SDS011;49654;51.142;14.924;2022-10-31T01:31:03;12.93;;;7.43;;
63499;SDS011;49654;51.142;14.924;2022-10-31T01:33:31;18.27;;;8.23;;
63499;SDS011;49654;51.142;14.924;2022-10-31T01:35:58;17.42;;;7.38;;
63499;SDS011;49654;51.142;14.924;2022-10-31T01:38:25;14.38;;;8.05;;
63499;SDS011;49654;51.142;14.924;2022-10-31T01:40:52;14.95;;;7.30;;
63499;SDS011;49654;51.142;14.924;2022-10-31T01:43:21;13.15;;;7.60;;
63499;SDS011;49654;51.142;14.924;2022-10-31T01:45:50;13.82;;;7.30;;
63499;SDS011;49654;51.142;14.924;2022-10-31T01:48:20;18.00;;;7.95;;
63499;SDS011;49654;51.142;14.924;2022-10-31T01:50:53;17.05;;;7.63;;
63499;SDS011;49654;51.142;14.924;2022-10-31T01:53:21;14.98;;;7.82;;
63499;SDS011;49654;51.142;14.924;2022-10-31T01:55:49;15.43;;;6.88;;
63499;SDS011;49654;51.142;14.924;2022-10-31T01:58:18;15.77;;;8.02;;
63499;SDS011;49654;51.142;14.924;2022-10-31T02:00:49;16.38;;;7.60;;
63499;SDS011;49654;51.142;14.924;2022-10-31T02:03:22;11.60;;;6.68;;
63499;SDS011;49654;51.142;14.924;2022-10-31T02:05:49;12.60;;;7.05;;
63499;SDS011;49654;51.142;14.924;2022-10-31T02:08:18;16.85;;;7.28;;
63499;SDS011;49654;51.142;14.924;2022-10-31T02:10:48;15.00;;;7.32;;
63499;SDS011;49654;51.142;14.924;2022-10-31T02:13:16;12.13;;;7.32;;
63499;SDS011;49654;51.142;14.924;2022-10-31T02:15:47;12.27;;;7.10;;
63499;SDS011;49654;51.142;14.924;2022-10-31T02:18:18;16.83;;;7.53;;
63499;SDS011;49654;51.142;14.924;2022-10-31T02:20:48;12.32;;;7.75;;
63499;SDS011;49654;51.142;14.924;2022-10-31T02:29:16;13.40;;;7.70;;
63499;SDS011;49654;51.142;14.924;2022-10-31T02:32:14;17.60;;;8.48;;
63499;SDS011;49654;51.142;14.924;2022-10-31T02:34:48;13.05;;;7.72;;
63499;SDS011;49654;51.142;14.924;2022-10-31T02:37:22;16.60;;;8.50;;
63499;SDS011;49654;51.142;14.924;2022-10-31T02:39:56;12.40;;;7.30;;
63499;SDS011;49654;51.142;14.924;2022-10-31T02:42:32;12.40;;;8.50;;
63499;SDS011;49654;51.142;14.924;2022-10-31T02:45:05;13.18;;;7.95;;
63499;SDS011;49654;51.142;14.924;2022-10-31T02:47:39;16.13;;;8.35;;
63499;SDS011;49654;51.142;14.924;2022-10-31T02:50:10;17.58;;;8.05;;
63499;SDS011;49654;51.142;14.924;2022-10-31T02:52:42;18.17;;;8.32;;
63499;SDS011;49654;51.142;14.924;2022-10-31T02:55:10;18.98;;;8.63;;
63499;SDS011;49654;51.142;14.924;2022-10-31T02:57:39;16.45;;;8.50;;
63499;SDS011;49654;51.142;14.924;2022-10-31T03:00:09;14.02;;;7.72;;
63499;SDS011;49654;51.142;14.924;2022-10-31T03:02:41;15.95;;;7.88;;
63499;SDS011;49654;51.142;14.924;2022-10-31T03:05:32;14.55;;;7.57;;
63499;SDS011;49654;51.142;14.924;2022-10-31T03:08:09;14.60;;;7.55;;
63499;SDS011;49654;51.142;14.924;2022-10-31T03:10:42;13.00;;;7.93;;
63499;SDS011;49654;51.142;14.924;2022-10-31T03:13:16;12.65;;;7.07;;
63499;SDS011;49654;51.142;14.924;2022-10-31T03:15:50;13.48;;;7.63;;
63499;SDS011;49654;51.142;14.924;2022-10-31T03:18:23;10.38;;;6.30;;
63499;SDS011;49654;51.142;14.924;2022-10-31T03:20:57;13.23;;;7.10;;
63499;SDS011;49654;51.142;14.924;2022-10-31T03:23:28;12.68;;;6.75;;
63499;SDS011;49654;51.142;14.924;2022-10-31T03:25:57;11.40;;;6.68;;
63499;SDS011;49654;51.142;14.924;2022-10-31T03:28:30;13.30;;;7.05;;
63499;SDS011;49654;51.142;14.924;2022-10-31T03:31:02;13.68;;;6.65;;
63499;SDS011;49654;51.142;14.924;2022-10-31T03:33:35;10.48;;;6.85;;
63499;SDS011;49654;51.142;14.924;2022-10-31T03:36:04;12.65;;;6.75;;
63499;SDS011;49654;51.142;14.924;2022-10-31T03:38:33;14.07;;;6.70;;
63499;SDS011;49654;51.142;14.924;2022-10-31T03:41:03;10.48;;;6.50;;
63499;SDS011;49654;51.142;14.924;2022-10-31T03:43:36;11.75;;;6.75;;
63499;SDS011;49654;51.142;14.924;2022-10-31T03:46:07;14.55;;;6.78;;
63499;SDS011;49654;51.142;14.924;2022-10-31T03:48:35;12.68;;;6.63;;
63499;SDS011;49654;51.142;14.924;2022-10-31T03:51:04;12.27;;;7.03;;
63499;SDS011;49654;51.142;14.924;2022-10-31T03:53:37;11.05;;;6.05;;
63499;SDS011;49654;51.142;14.924;2022-10-31T03:56:11;9.68;;;6.63;;
63499;SDS011;49654;51.142;14.924;2022-10-31T03:58:45;13.80;;;6.43;;
63499;SDS011;49654;51.142;14.924;2022-10-31T04:01:16;7.70;;;5.60;;
63499;SDS011;49654;51.142;14.924;2022-10-31T04:03:48;11.32;;;6.70;;
63499;SDS011;49654;51.142;14.924;2022-10-31T04:06:16;11.13;;;6.70;;
63499;SDS011;49654;51.142;14.924;2022-10-31T04:08:47;12.43;;;6.38;;
63499;SDS011;49654;51.142;14.924;2022-10-31T04:11:18;11.18;;;6.70;;
63499;SDS011;49654;51.142;14.924;2022-10-31T04:13:48;10.45;;;7.28;;
63499;SDS011;49654;51.142;14.924;2022-10-31T04:16:17;14.43;;;6.72;;
63499;SDS011;49654;51.142;14.924;2022-10-31T04:18:45;12.00;;;6.13;;
63499;SDS011;49654;51.142;14.924;2022-10-31T04:21:14;13.13;;;6.65;;
63499;SDS011;49654;51.142;14.924;2022-10-31T04:23:42;10.82;;;6.55;;
63499;SDS011;49654;51.142;14.924;2022-10-31T04:26:09;11.70;;;7.00;;
63499;SDS011;49654;51.142;14.924;2022-10-31T04:28:38;13.32;;;6.82;;
63499;SDS011;49654;51.142;14.924;2022-10-31T04:31:05;9.52;;;6.25;;
63499;SDS011;49654;51.142;14.924;2022-10-31T04:33:32;11.98;;;6.95;;
63499;SDS011;49654;51.142;14.924;2022-10-31T04:35:59;12.23;;;6.80;;
63499;SDS011;49654;51.142;14.924;2022-10-31T04:38:27;11.05;;;5.85;;
63499;SDS011;49654;51.142;14.924;2022-10-31T04:40:54;13.05;;;7.97;;
63499;SDS011;49654;51.142;14.924;2022-10-31T04:43:21;11.68;;;6.85;;
63499;SDS011;49654;51.142;14.924;2022-10-31T04:45:48;14.60;;;7.00;;
63499;SDS011;49654;51.142;14.924;2022-10-31T04:48:15;8.60;;;5.63;;
63499;SDS011;49654;51.142;14.924;2022-10-31T04:50:42;8.93;;;6.03;;
63499;SDS011;49654;51.142;14.924;2022-10-31T04:53:09;12.55;;;5.97;;
63499;SDS011;49654;51.142;14.924;2022-10-31T04:55:38;11.32;;;6.05;;
63499;SDS011;49654;51.142;14.924;2022-10-31T04:58:05;12.32;;;7.07;;
63499;SDS011;49654;51.142;14.924;2022-10-31T05:00:32;12.18;;;6.47;;
63499;SDS011;49654;51.142;14.924;2022-10-31T05:02:59;12.18;;;6.30;;
63499;SDS011;49654;51.142;14.924;2022-10-31T05:05:27;11.50;;;6.35;;
63499;SDS011;49654;51.142;14.924;2022-10-31T05:07:56;13.88;;;7.10;;
63499;SDS011;49654;51.142;14.924;2022-10-31T05:10:25;13.90;;;6.55;;
63499;SDS011;49654;51.142;14.924;2022-10-31T05:12:55;11.85;;;5.55;;
63499;SDS011;49654;51.142;14.924;2022-10-31T05:15:23;11.50;;;6.03;;
63499;SDS011;49654;51.142;14.924;2022-10-31T05:17:52;10.98;;;5.82;;
63499;SDS011;49654;51.142;14.924;2022-10-31T05:20:20;9.48;;;5.63;;
63499;SDS011;49654;51.142;14.924;2022-10-31T05:22:49;11.52;;;6.82;;
63499;SDS011;49654;51.142;14.924;2022-10-31T05:25:18;10.05;;;6.10;;
63499;SDS011;49654;51.142;14.924;2022-10-31T05:27:47;10.60;;;5.78;;
63499;SDS011;49654;51.142;14.924;2022-10-31T05:30:16;9.90;;;5.57;;
63499;SDS011;49654;51.142;14.924;2022-10-31T05:32:46;8.63;;;5.57;;
63499;SDS011;49654;51.142;14.924;2022-10-31T05:35:15;10.73;;;5.47;;
63499;SDS011;49654;51.142;14.924;2022-10-31T05:37:43;11.43;;;5.95;;
63499;SDS011;49654;51.142;14.924;2022-10-31T05:40:12;9.45;;;6.03;;
63499;SDS011;49654;51.142;14.924;2022-10-31T05:42:40;10.95;;;5.93;;
63499;SDS011;49654;51.142;14.924;2022-10-31T05:45:08;10.70;;;5.35;;
63499;SDS011;49654;51.142;14.924;2022-10-31T05:47:38;8.95;;;5.65;;
63499;SDS011;49654;51.142;14.924;2022-10-31T05:50:06;10.07;;;5.30;;
63499;SDS011;49654;51.142;14.924;2022-10-31T05:52:34;11.07;;;5.40;;
63499;SDS011;49654;51.142;14.924;2022-10-31T05:55:01;15.75;;;5.25;;
63499;SDS011;49654;51.142;14.924;2022-10-31T05:57:28;10.52;;;5.90;;
63499;SDS011;49654;51.142;14.924;2022-10-31T05:59:55;10.77;;;6.20;;
63499;SDS011;49654;51.142;14.924;2022-10-31T06:02:22;9.73;;;6.18;;
63499;SDS011;49654;51.142;14.924;2022-10-31T06:04:51;12.65;;;5.40;;
63499;SDS011;49654;51.142;14.924;2022-10-31T06:07:18;8.95;;;4.82;;
63499;SDS011;49654;51.142;14.924;2022-10-31T06:09:45;11.82;;;5.28;;
63499;SDS011;49654;51.142;14.924;2022-10-31T06:12:12;10.73;;;5.50;;
63499;SDS011;49654;51.142;14.924;2022-10-31T06:14:39;12.18;;;6.10;;
63499;SDS011;49654;51.142;14.924;2022-10-31T06:17:06;8.65;;;5.35;;
63499;SDS011;49654;51.142;14.924;2022-10-31T06:19:33;8.27;;;4.70;;
63499;SDS011;49654;51.142;14.924;2022-10-31T06:22:01;7.88;;;5.13;;
63499;SDS011;49654;51.142;14.924;2022-10-31T06:24:28;8.73;;;5.50;;
63499;SDS011;49654;51.142;14.924;2022-10-31T06:26:56;8.38;;;4.82;;
63499;SDS011;49654;51.142;14.924;2022-10-31T06:29:31;8.43;;;5.10;;
63499;SDS011;49654;51.142;14.924;2022-10-31T06:34:34;8.50;;;5.10;;
63499;SDS011;49654;51.142;14.924;2022-10-31T06:37:02;8.73;;;5.20;;
63499;SDS011;49654;51.142;14.924;2022-10-31T06:39:29;12.57;;;5.57;;
63499;SDS011;49654;51.142;14.924;2022-10-31T06:41:56;10.73;;;5.20;;
63499;SDS011;49654;51.142;14.924;2022-10-31T06:44:24;10.40;;;5.40;;
63499;SDS011;49654;51.142;14.924;2022-10-31T06:46:51;7.43;;;5.13;;
63499;SDS011;49654;51.142;14.924;2022-10-31T06:49:18;8.98;;;4.95;;
63499;SDS011;49654;51.142;14.924;2022-10-31T06:51:46;10.55;;;5.28;;
63499;SDS011;49654;51.142;14.924;2022-10-31T06:54:15;8.68;;;5.28;;
63499;SDS011;49654;51.142;14.924;2022-10-31T06:56:45;6.65;;;4.80;;
63499;SDS011;49654;51.142;14.924;2022-10-31T06:59:13;8.38;;;5.35;;
63499;SDS011;49654;51.142;14.924;2022-10-31T07:01:40;9.25;;;5.45;;
63499;SDS011;49654;51.142;14.924;2022-10-31T07:04:09;9.07;;;5.10;;
63499;SDS011;49654;51.142;14.924;2022-10-31T07:06:37;6.60;;;4.70;;
63499;SDS011;49654;51.142;14.924;2022-10-31T07:09:04;10.48;;;5.78;;
63499;SDS011;49654;51.142;14.924;2022-10-31T07:11:33;7.07;;;4.95;;
63499;SDS011;49654;51.142;14.924;2022-10-31T07:14:00;10.10;;;6.68;;
63499;SDS011;49654;51.142;14.924;2022-10-31T07:16:27;11.88;;;6.82;;
63499;SDS011;49654;51.142;14.924;2022-10-31T07:18:54;10.05;;;7.00;;
63499;SDS011;49654;51.142;14.924;2022-10-31T07:21:21;11.55;;;7.63;;
63499;SDS011;49654;51.142;14.924;2022-10-31T07:23:48;9.75;;;6.60;;
63499;SDS011;49654;51.142;14.924;2022-10-31T07:26:15;11.63;;;6.22;;
63499;SDS011;49654;51.142;14.924;2022-10-31T07:28:45;11.13;;;5.97;;
63499;SDS011;49654;51.142;14.924;2022-10-31T07:31:12;11.40;;;6.90;;
63499;SDS011;49654;51.142;14.924;2022-10-31T07:33:39;11.02;;;6.38;;
63499;SDS011;49654;51.142;14.924;2022-10-31T07:36:06;10.00;;;5.18;;
63499;SDS011;49654;51.142;14.924;2022-10-31T07:38:33;10.32;;;5.22;;
63499;SDS011;49654;51.142;14.924;2022-10-31T07:41:00;10.05;;;4.90;;
63499;SDS011;49654;51.142;14.924;2022-10-31T07:43:27;9.20;;;5.18;;
63499;SDS011;49654;51.142;14.924;2022-10-31T07:45:56;9.48;;;5.07;;
63499;SDS011;49654;51.142;14.924;2022-10-31T07:48:23;15.73;;;5.25;;
63499;SDS011;49654;51.142;14.924;2022-10-31T07:50:50;8.50;;;4.80;;
63499;SDS011;49654;51.142;14.924;2022-10-31T07:53:17;7.57;;;4.50;;
63499;SDS011;49654;51.142;14.924;2022-10-31T07:55:44;10.23;;;5.15;;
63499;SDS011;49654;51.142;14.924;2022-10-31T07:58:11;8.55;;;4.72;;
63499;SDS011;49654;51.142;14.924;2022-10-31T08:00:40;15.32;;;4.85;;
63499;SDS011;49654;51.142;14.924;2022-10-31T08:03:10;10.98;;;4.63;;
63499;SDS011;49654;51.142;14.924;2022-10-31T08:05:38;10.45;;;4.65;;
63499;SDS011;49654;51.142;14.924;2022-10-31T08:08:06;8.63;;;4.82;;
63499;SDS011;49654;51.142;14.924;2022-10-31T08:10:34;12.32;;;5.07;;
63499;SDS011;49654;51.142;14.924;2022-10-31T08:13:02;8.63;;;4.95;;
63499;SDS011;49654;51.142;14.924;2022-10-31T08:15:32;8.32;;;4.28;;
63499;SDS011;49654;51.142;14.924;2022-10-31T08:18:02;13.18;;;4.53;;
63499;SDS011;49654;51.142;14.924;2022-10-31T08:20:31;10.50;;;4.70;;
63499;SDS011;49654;51.142;14.924;2022-10-31T08:22:59;6.38;;;3.60;;
63499;SDS011;49654;51.142;14.924;2022-10-31T08:25:28;11.90;;;4.15;;
63499;SDS011;49654;51.142;14.924;2022-10-31T08:27:57;13.60;;;4.50;;
63499;SDS011;49654;51.142;14.924;2022-10-31T08:30:24;9.68;;;4.63;;
63499;SDS011;49654;51.142;14.924;2022-10-31T08:32:57;7.85;;;4.30;;
63499;SDS011;49654;51.142;14.924;2022-10-31T08:35:25;6.78;;;4.10;;
63499;SDS011;49654;51.142;14.924;2022-10-31T08:37:54;9.90;;;4.43;;
63499;SDS011;49654;51.142;14.924;2022-10-31T08:40:21;11.77;;;5.00;;
63499;SDS011;49654;51.142;14.924;2022-10-31T08:42:54;9.10;;;3.88;;
63499;SDS011;49654;51.142;14.924;2022-10-31T08:45:22;10.30;;;4.03;;
63499;SDS011;49654;51.142;14.924;2022-10-31T08:47:49;8.35;;;4.50;;
63499;SDS011;49654;51.142;14.924;2022-10-31T08:50:16;9.25;;;4.55;;
63499;SDS011;49654;51.142;14.924;2022-10-31T08:52:44;11.43;;;4.97;;
63499;SDS011;49654;51.142;14.924;2022-10-31T08:55:12;10.13;;;4.80;;
63499;SDS011;49654;51.142;14.924;2022-10-31T08:57:40;8.13;;;4.20;;
63499;SDS011;49654;51.142;14.924;2022-10-31T09:00:07;10.02;;;4.80;;
63499;SDS011;49654;51.142;14.924;2022-10-31T09:02:35;11.00;;;5.00;;
63499;SDS011;49654;51.142;14.924;2022-10-31T09:05:04;12.45;;;5.55;;
63499;SDS011;49654;51.142;14.924;2022-10-31T09:07:31;10.70;;;5.28;;
63499;SDS011;49654;51.142;14.924;2022-10-31T09:09:58;8.50;;;4.50;;
63499;SDS011;49654;51.142;14.924;2022-10-31T09:12:26;11.10;;;5.03;;
63499;SDS011;49654;51.142;14.924;2022-10-31T09:14:53;9.18;;;4.82;;
63499;SDS011;49654;51.142;14.924;2022-10-31T09:17:20;10.57;;;5.05;;
63499;SDS011;49654;51.142;14.924;2022-10-31T09:19:48;13.95;;;5.47;;
63499;SDS011;49654;51.142;14.924;2022-10-31T09:22:15;13.80;;;5.50;;
63499;SDS011;49654;51.142;14.924;2022-10-31T09:24:42;11.70;;;5.82;;
63499;SDS011;49654;51.142;14.924;2022-10-31T09:27:09;12.18;;;5.47;;
63499;SDS011;49654;51.142;14.924;2022-10-31T09:29:37;26.17;;;16.58;;
63499;SDS011;49654;51.142;14.924;2022-10-31T09:32:04;19.20;;;13.60;;
63499;SDS011;49654;51.142;14.924;2022-10-31T09:34:31;35.90;;;27.92;;
63499;SDS011;49654;51.142;14.924;2022-10-31T09:36:58;8.75;;;6.10;;
63499;SDS011;49654;51.142;14.924;2022-10-31T09:39:25;14.10;;;6.35;;
63499;SDS011;49654;51.142;14.924;2022-10-31T09:41:58;12.70;;;7.40;;
63499;SDS011;49654;51.142;14.924;2022-10-31T09:44:40;11.85;;;6.15;;
63499;SDS011;49654;51.142;14.924;2022-10-31T09:47:17;11.70;;;6.40;;
63499;SDS011;49654;51.142;14.924;2022-10-31T09:49:59;15.48;;;6.93;;
63499;SDS011;49654;51.142;14.924;2022-10-31T09:52:38;14.98;;;7.47;;
63499;SDS011;49654;51.142;14.924;2022-10-31T09:55:13;11.90;;;6.70;;
63499;SDS011;49654;51.142;14.924;2022-10-31T09:57:44;15.60;;;6.95;;
63499;SDS011;49654;51.142;14.924;2022-10-31T10:00:16;13.88;;;6.60;;
63499;SDS011;49654;51.142;14.924;2022-10-31T10:02:46;13.38;;;6.47;;
63499;SDS011;49654;51.142;14.924;2022-10-31T10:05:17;17.95;;;6.88;;
63499;SDS011;49654;51.142;14.924;2022-10-31T10:07:49;10.52;;;6.00;;
63499;SDS011;49654;51.142;14.924;2022-10-31T10:10:23;12.32;;;6.13;;
63499;SDS011;49654;51.142;14.924;2022-10-31T10:13:02;13.00;;;6.63;;
63499;SDS011;49654;51.142;14.924;2022-10-31T10:16:00;12.57;;;6.13;;
63499;SDS011;49654;51.142;14.924;2022-10-31T10:18:43;12.25;;;6.72;;
63499;SDS011;49654;51.142;14.924;2022-10-31T10:21:24;13.85;;;6.20;;
63499;SDS011;49654;51.142;14.924;2022-10-31T10:24:00;17.55;;;7.00;;
63499;SDS011;49654;51.142;14.924;2022-10-31T10:26:37;19.55;;;6.85;;
63499;SDS011;49654;51.142;14.924;2022-10-31T10:29:14;11.60;;;6.05;;
63499;SDS011;49654;51.142;14.924;2022-10-31T10:31:53;18.70;;;6.60;;
63499;SDS011;49654;51.142;14.924;2022-10-31T10:34:26;14.48;;;7.90;;
63499;SDS011;49654;51.142;14.924;2022-10-31T10:36:57;14.88;;;7.80;;
63499;SDS011;49654;51.142;14.924;2022-10-31T10:39:29;22.23;;;12.90;;
63499;SDS011;49654;51.142;14.924;2022-10-31T10:42:04;14.07;;;7.10;;
63499;SDS011;49654;51.142;14.924;2022-10-31T10:44:55;18.65;;;6.93;;
63499;SDS011;49654;51.142;14.924;2022-10-31T10:47:42;12.23;;;6.95;;
63499;SDS011;49654;51.142;14.924;2022-10-31T10:50:13;12.88;;;6.38;;
63499;SDS011;49654;51.142;14.924;2022-10-31T10:52:46;14.73;;;6.38;;
63499;SDS011;49654;51.142;14.924;2022-10-31T10:55:26;15.52;;;7.45;;
63499;SDS011;49654;51.142;14.924;2022-10-31T10:58:00;14.88;;;7.10;;
63499;SDS011;49654;51.142;14.924;2022-10-31T11:00:30;13.35;;;6.63;;
63499;SDS011;49654;51.142;14.924;2022-10-31T11:03:00;12.68;;;6.78;;
63499;SDS011;49654;51.142;14.924;2022-10-31T11:05:28;12.60;;;6.82;;
63499;SDS011;49654;51.142;14.924;2022-10-31T11:08:00;13.45;;;5.88;;
63499;SDS011;49654;51.142;14.924;2022-10-31T11:10:28;16.10;;;6.28;;
63499;SDS011;49654;51.142;14.924;2022-10-31T11:13:06;12.45;;;6.38;;
63499;SDS011;49654;51.142;14.924;2022-10-31T11:15:49;16.50;;;6.70;;
63499;SDS011;49654;51.142;14.924;2022-10-31T11:18:22;16.30;;;7.97;;
63499;SDS011;49654;51.142;14.924;2022-10-31T11:20:51;13.38;;;6.28;;
63499;SDS011;49654;51.142;14.924;2022-10-31T11:23:20;14.93;;;7.07;;
63499;SDS011;49654;51.142;14.924;2022-10-31T11:25:49;17.95;;;6.40;;
63499;SDS011;49654;51.142;14.924;2022-10-31T11:28:17;15.80;;;6.90;;
63499;SDS011;49654;51.142;14.924;2022-10-31T11:30:45;12.52;;;6.90;;
63499;SDS011;49654;51.142;14.924;2022-10-31T11:33:16;16.17;;;7.43;;
63499;SDS011;49654;51.142;14.924;2022-10-31T11:35:48;13.65;;;6.68;;
63499;SDS011;49654;51.142;14.924;2022-10-31T11:38:17;15.30;;;6.25;;
63499;SDS011;49654;51.142;14.924;2022-10-31T11:40:52;13.25;;;6.90;;
63499;SDS011;49654;51.142;14.924;2022-10-31T11:43:21;16.02;;;7.10;;
63499;SDS011;49654;51.142;14.924;2022-10-31T11:45:49;16.10;;;7.70;;
63499;SDS011;49654;51.142;14.924;2022-10-31T11:48:16;13.70;;;6.20;;
63499;SDS011;49654;51.142;14.924;2022-10-31T11:50:49;9.93;;;6.07;;
63499;SDS011;49654;51.142;14.924;2022-10-31T11:53:18;15.95;;;6.90;;
63499;SDS011;49654;51.142;14.924;2022-10-31T11:55:59;19.13;;;7.32;;
63499;SDS011;49654;51.142;14.924;2022-10-31T11:58:30;15.20;;;6.82;;
63499;SDS011;49654;51.142;14.924;2022-10-31T12:00:57;16.27;;;6.90;;
63499;SDS011;49654;51.142;14.924;2022-10-31T12:03:29;14.40;;;6.82;;
63499;SDS011;49654;51.142;14.924;2022-10-31T12:06:07;14.38;;;7.30;;
63499;SDS011;49654;51.142;14.924;2022-10-31T12:08:39;14.48;;;7.03;;
63499;SDS011;49654;51.142;14.924;2022-10-31T12:11:11;16.35;;;7.22;;
63499;SDS011;49654;51.142;14.924;2022-10-31T12:14:02;11.55;;;6.80;;
63499;SDS011;49654;51.142;14.924;2022-10-31T12:16:39;10.90;;;5.43;;
63499;SDS011;49654;51.142;14.924;2022-10-31T12:19:14;15.02;;;6.07;;
63499;SDS011;49654;51.142;14.924;2022-10-31T12:24:47;14.95;;;8.13;;
63499;SDS011;49654;51.142;14.924;2022-10-31T12:27:30;13.90;;;7.00;;
63499;SDS011;49654;51.142;14.924;2022-10-31T12:30:13;14.35;;;6.68;;
63499;SDS011;49654;51.142;14.924;2022-10-31T12:32:53;17.58;;;7.72;;
63499;SDS011;49654;51.142;14.924;2022-10-31T12:35:46;14.48;;;5.80;;
63499;SDS011;49654;51.142;14.924;2022-10-31T12:38:37;15.10;;;6.35;;
63499;SDS011;49654;51.142;14.924;2022-10-31T12:41:23;14.93;;;5.90;;
63499;SDS011;49654;51.142;14.924;2022-10-31T12:44:04;13.15;;;6.53;;
63499;SDS011;49654;51.142;14.924;2022-10-31T12:46:43;15.45;;;6.65;;
63499;SDS011;49654;51.142;14.924;2022-10-31T12:49:31;12.48;;;5.63;;
63499;SDS011;49654;51.142;14.924;2022-10-31T12:52:13;12.80;;;6.50;;
63499;SDS011;49654;51.142;14.924;2022-10-31T12:54:57;10.18;;;5.43;;
63499;SDS011;49654;51.142;14.924;2022-10-31T12:57:35;14.32;;;6.00;;
63499;SDS011;49654;51.142;14.924;2022-10-31T13:00:10;11.13;;;5.50;;
63499;SDS011;49654;51.142;14.924;2022-10-31T13:02:42;16.77;;;5.82;;
63499;SDS011;49654;51.142;14.924;2022-10-31T13:05:16;14.32;;;6.05;;
63499;SDS011;49654;51.142;14.924;2022-10-31T13:07:47;10.40;;;5.93;;
63499;SDS011;49654;51.142;14.924;2022-10-31T13:10:22;13.75;;;6.35;;
63499;SDS011;49654;51.142;14.924;2022-10-31T13:12:53;14.50;;;6.10;;
63499;SDS011;49654;51.142;14.924;2022-10-31T13:15:24;13.13;;;5.15;;
63499;SDS011;49654;51.142;14.924;2022-10-31T13:17:54;11.93;;;5.00;;
63499;SDS011;49654;51.142;14.924;2022-10-31T13:20:24;13.63;;;5.75;;
63499;SDS011;49654;51.142;14.924;2022-10-31T13:23:03;15.23;;;6.32;;
63499;SDS011;49654;51.142;14.924;2022-10-31T13:25:38;17.52;;;5.65;;
63499;SDS011;49654;51.142;14.924;2022-10-31T13:28:12;15.48;;;5.95;;
63499;SDS011;49654;51.142;14.924;2022-10-31T13:30:50;12.45;;;5.20;;
63499;SDS011;49654;51.142;14.924;2022-10-31T13:33:19;14.32;;;5.65;;
63499;SDS011;49654;51.142;14.924;2022-10-31T13:35:51;10.80;;;4.75;;
63499;SDS011;49654;51.142;14.924;2022-10-31T13:38:22;17.60;;;6.53;;
63499;SDS011;49654;51.142;14.924;2022-10-31T13:40:59;12.35;;;5.00;;
63499;SDS011;49654;51.142;14.924;2022-10-31T13:43:33;12.30;;;5.82;;
63499;SDS011;49654;51.142;14.924;2022-10-31T13:46:22;15.20;;;5.38;;
63499;SDS011;49654;51.142;14.924;2022-10-31T13:48:51;15.57;;;5.50;;
63499;SDS011;49654;51.142;14.924;2022-10-31T13:51:24;15.55;;;5.60;;
63499;SDS011;49654;51.142;14.924;2022-10-31T13:53:57;12.38;;;4.72;;
63499;SDS011;49654;51.142;14.924;2022-10-31T13:56:27;12.85;;;6.30;;
63499;SDS011;49654;51.142;14.924;2022-10-31T13:59:01;14.98;;;4.97;;
63499;SDS011;49654;51.142;14.924;2022-10-31T14:01:31;13.45;;;5.50;;
63499;SDS011;49654;51.142;14.924;2022-10-31T14:04:02;12.95;;;5.45;;
63499;SDS011;49654;51.142;14.924;2022-10-31T14:06:36;11.57;;;5.60;;
63499;SDS011;49654;51.142;14.924;2022-10-31T14:09:05;10.32;;;5.47;;
63499;SDS011;49654;51.142;14.924;2022-10-31T14:11:46;11.98;;;5.03;;
63499;SDS011;49654;51.142;14.924;2022-10-31T14:14:14;16.17;;;5.47;;
63499;SDS011;49654;51.142;14.924;2022-10-31T14:16:42;10.20;;;5.15;;
63499;SDS011;49654;51.142;14.924;2022-10-31T14:19:14;10.73;;;4.75;;
63499;SDS011;49654;51.142;14.924;2022-10-31T14:21:43;12.20;;;5.43;;
63499;SDS011;49654;51.142;14.924;2022-10-31T14:24:15;12.50;;;5.80;;
63499;SDS011;49654;51.142;14.924;2022-10-31T14:26:59;16.38;;;5.68;;
63499;SDS011;49654;51.142;14.924;2022-10-31T14:29:47;14.73;;;6.15;;
63499;SDS011;49654;51.142;14.924;2022-10-31T14:32:19;10.32;;;5.60;;
63499;SDS011;49654;51.142;14.924;2022-10-31T14:34:52;12.85;;;6.60;;
63499;SDS011;49654;51.142;14.924;2022-10-31T14:37:25;9.60;;;5.97;;
63499;SDS011;49654;51.142;14.924;2022-10-31T14:40:11;15.55;;;6.72;;
63499;SDS011;49654;51.142;14.924;2022-10-31T14:42:54;14.18;;;6.53;;
63499;SDS011;49654;51.142;14.924;2022-10-31T14:45:38;10.55;;;6.28;;
63499;SDS011;49654;51.142;14.924;2022-10-31T14:48:27;12.60;;;6.07;;
63499;SDS011;49654;51.142;14.924;2022-10-31T14:51:08;17.08;;;6.30;;
63499;SDS011;49654;51.142;14.924;2022-10-31T14:53:45;11.82;;;5.55;;
63499;SDS011;49654;51.142;14.924;2022-10-31T14:56:17;14.30;;;6.13;;
63499;SDS011;49654;51.142;14.924;2022-10-31T14:58:50;14.02;;;6.53;;